Point Harbor, North Carolina
Current Conditions -  °F | °C
As of 6:15 PM on Thursday 27 Nov 2014 (Local Time) from KFFA Reporting Station
Scattered Clouds Scattered Clouds  
Wind Chill: 39°   Ceiling: Unl
Heat Index: 44°   Visibility: 10mi
Dew Point: 39°   Wind: 7mph
Humidity: 84%   Direction: 310°NW
Pressure: 30.07"   Gusts: NA
Location:  36.08°N, 75.79°W
Report Text: KFFA 272315Z AUTO 31006KT 10SM SCT036 SCT045 06/04 A3007 RMK AO2 T00640038
Loading
Personal Weather Stations






























Interactive Weather Map New forecast layout! Learn more

10-Day Weather Forecast

Advertisements
Track Severe Weather on mobile